ESNN/SDL METAR and TAF weather

Enter ICAO airport designator
Station Type Date Time Source
ESNN METAR 2020/01/21 21:20 UTC NOAA

ESNN 212120Z 30016KT 270V330 9999 FEW043 03/M04 Q1007 R16/09//69


Station Type Date Time Source
ESNN Decoded METAR 2020/01/21 21:20 UTC NOAA

Sundsvall-Harnosand Flygplats, Sweden (ESNN) 62-32N 017-27E 10M
Jan 21, 2020 - 04:20 PM EST / 2020.01.21 2120 UTC
Wind: from the WNW (300 degrees) at 18 MPH (16 KT) (direction variable):0
Visibility: greater than 7 mile(s):0
Sky conditions: mostly clear
Temperature: 37 F (3 C)
Dew Point: 24 F (-4 C)
Relative Humidity: 59%
Pressure (altimeter): 29.74 in. Hg (1007 hPa)
ob: ESNN 212120Z 30016KT 270V330 9999 FEW043 03/M04 Q1007 R16/09//69
cycle: 21

Station Type Date Time Source
ESNN TAF 2016/05/29 09:33 UTC NOAA

TAF TAF ESNN 290830Z 2909/3018 07006KT 9999 SCT045
BECMG 2913/2915 14010KT

Example: see airport list